sensor_id;sensor_type;location;lat;lon;timestamp;P1;durP1;ratioP1;P2;durP2;ratioP2
72611;SDS011;60655;52.182;4.474;2023-09-30T00:01:36;9.52;;;2.75;;
72611;SDS011;60655;52.182;4.474;2023-09-30T00:03:37;8.57;;;2.58;;
72611;SDS011;60655;52.182;4.474;2023-09-30T00:05:38;11.30;;;2.80;;
72611;SDS011;60655;52.182;4.474;2023-09-30T00:07:39;9.43;;;2.80;;
72611;SDS011;60655;52.182;4.474;2023-09-30T00:09:40;9.02;;;2.60;;
72611;SDS011;60655;52.182;4.474;2023-09-30T00:11:41;12.60;;;2.95;;
72611;SDS011;60655;52.182;4.474;2023-09-30T00:13:42;11.80;;;2.88;;
72611;SDS011;60655;52.182;4.474;2023-09-30T00:15:43;9.38;;;3.50;;
72611;SDS011;60655;52.182;4.474;2023-09-30T00:17:44;9.38;;;2.70;;
72611;SDS011;60655;52.182;4.474;2023-09-30T00:19:45;9.75;;;2.50;;
72611;SDS011;60655;52.182;4.474;2023-09-30T00:21:46;11.55;;;2.53;;
72611;SDS011;60655;52.182;4.474;2023-09-30T00:23:47;11.30;;;2.60;;
72611;SDS011;60655;52.182;4.474;2023-09-30T00:25:48;12.38;;;3.15;;
72611;SDS011;60655;52.182;4.474;2023-09-30T00:27:50;7.63;;;2.33;;
72611;SDS011;60655;52.182;4.474;2023-09-30T00:29:51;9.40;;;2.70;;
72611;SDS011;60655;52.182;4.474;2023-09-30T00:31:52;8.65;;;3.10;;
72611;SDS011;60655;52.182;4.474;2023-09-30T00:33:53;11.95;;;2.88;;
72611;SDS011;60655;52.182;4.474;2023-09-30T00:35:55;8.50;;;2.47;;
72611;SDS011;60655;52.182;4.474;2023-09-30T00:37:56;9.52;;;2.85;;
72611;SDS011;60655;52.182;4.474;2023-09-30T00:39:57;9.00;;;2.53;;
72611;SDS011;60655;52.182;4.474;2023-09-30T00:41:58;8.32;;;2.47;;
72611;SDS011;60655;52.182;4.474;2023-09-30T00:43:59;7.30;;;2.65;;
72611;SDS011;60655;52.182;4.474;2023-09-30T00:48:33;9.65;;;2.58;;
72611;SDS011;60655;52.182;4.474;2023-09-30T00:50:35;10.18;;;3.17;;
72611;SDS011;60655;52.182;4.474;2023-09-30T00:52:36;9.18;;;3.05;;
72611;SDS011;60655;52.182;4.474;2023-09-30T00:54:38;11.25;;;3.25;;
72611;SDS011;60655;52.182;4.474;2023-09-30T00:56:43;9.23;;;2.90;;
72611;SDS011;60655;52.182;4.474;2023-09-30T00:58:46;10.10;;;3.03;;
72611;SDS011;60655;52.182;4.474;2023-09-30T01:00:48;9.82;;;2.78;;
72611;SDS011;60655;52.182;4.474;2023-09-30T01:02:49;9.60;;;2.95;;
72611;SDS011;60655;52.182;4.474;2023-09-30T01:04:50;9.52;;;3.00;;
72611;SDS011;60655;52.182;4.474;2023-09-30T01:06:52;13.95;;;3.55;;
72611;SDS011;60655;52.182;4.474;2023-09-30T01:08:53;11.38;;;3.47;;
72611;SDS011;60655;52.182;4.474;2023-09-30T01:10:54;15.40;;;4.03;;
72611;SDS011;60655;52.182;4.474;2023-09-30T01:12:57;11.60;;;3.08;;
72611;SDS011;60655;52.182;4.474;2023-09-30T01:14:58;11.25;;;3.08;;
72611;SDS011;60655;52.182;4.474;2023-09-30T01:17:00;15.50;;;3.40;;
72611;SDS011;60655;52.182;4.474;2023-09-30T01:19:02;7.70;;;3.20;;
72611;SDS011;60655;52.182;4.474;2023-09-30T01:21:03;10.27;;;2.92;;
72611;SDS011;60655;52.182;4.474;2023-09-30T01:23:05;13.93;;;3.97;;
72611;SDS011;60655;52.182;4.474;2023-09-30T01:25:07;11.25;;;3.25;;
72611;SDS011;60655;52.182;4.474;2023-09-30T01:27:10;10.43;;;3.67;;
72611;SDS011;60655;52.182;4.474;2023-09-30T01:29:11;7.63;;;3.00;;
72611;SDS011;60655;52.182;4.474;2023-09-30T01:31:12;10.68;;;3.45;;
72611;SDS011;60655;52.182;4.474;2023-09-30T01:33:14;9.65;;;3.08;;
72611;SDS011;60655;52.182;4.474;2023-09-30T01:35:17;14.05;;;3.22;;
72611;SDS011;60655;52.182;4.474;2023-09-30T01:37:18;8.48;;;3.25;;
72611;SDS011;60655;52.182;4.474;2023-09-30T01:39:19;10.60;;;3.38;;
72611;SDS011;60655;52.182;4.474;2023-09-30T01:41:20;9.57;;;3.15;;
72611;SDS011;60655;52.182;4.474;2023-09-30T01:43:22;8.02;;;3.20;;
72611;SDS011;60655;52.182;4.474;2023-09-30T01:45:24;8.85;;;3.35;;
72611;SDS011;60655;52.182;4.474;2023-09-30T01:47:24;9.30;;;3.33;;
72611;SDS011;60655;52.182;4.474;2023-09-30T01:49:25;12.50;;;4.03;;
72611;SDS011;60655;52.182;4.474;2023-09-30T01:51:26;12.38;;;3.88;;
72611;SDS011;60655;52.182;4.474;2023-09-30T01:53:28;12.40;;;3.50;;
72611;SDS011;60655;52.182;4.474;2023-09-30T01:55:29;15.18;;;4.22;;
72611;SDS011;60655;52.182;4.474;2023-09-30T01:57:30;13.98;;;3.25;;
72611;SDS011;60655;52.182;4.474;2023-09-30T01:59:31;7.90;;;3.55;;
72611;SDS011;60655;52.182;4.474;2023-09-30T02:01:32;13.20;;;3.58;;
72611;SDS011;60655;52.182;4.474;2023-09-30T02:03:35;11.35;;;3.38;;
72611;SDS011;60655;52.182;4.474;2023-09-30T02:05:38;11.63;;;3.80;;
72611;SDS011;60655;52.182;4.474;2023-09-30T02:07:40;12.85;;;3.80;;
72611;SDS011;60655;52.182;4.474;2023-09-30T02:09:41;13.88;;;3.92;;
72611;SDS011;60655;52.182;4.474;2023-09-30T02:11:42;8.32;;;3.40;;
72611;SDS011;60655;52.182;4.474;2023-09-30T02:13:43;10.95;;;3.83;;
72611;SDS011;60655;52.182;4.474;2023-09-30T02:15:45;10.88;;;3.50;;
72611;SDS011;60655;52.182;4.474;2023-09-30T02:17:46;14.25;;;3.33;;
72611;SDS011;60655;52.182;4.474;2023-09-30T02:19:49;10.40;;;3.63;;
72611;SDS011;60655;52.182;4.474;2023-09-30T02:21:50;9.27;;;3.08;;
72611;SDS011;60655;52.182;4.474;2023-09-30T02:23:51;15.05;;;3.35;;
72611;SDS011;60655;52.182;4.474;2023-09-30T02:25:55;10.50;;;3.70;;
72611;SDS011;60655;52.182;4.474;2023-09-30T02:27:56;16.00;;;3.90;;
72611;SDS011;60655;52.182;4.474;2023-09-30T02:29:57;11.82;;;3.53;;
72611;SDS011;60655;52.182;4.474;2023-09-30T02:31:58;12.88;;;3.42;;
72611;SDS011;60655;52.182;4.474;2023-09-30T02:33:59;10.05;;;3.08;;
72611;SDS011;60655;52.182;4.474;2023-09-30T02:36:00;12.70;;;3.58;;
72611;SDS011;60655;52.182;4.474;2023-09-30T02:38:02;10.93;;;3.35;;
72611;SDS011;60655;52.182;4.474;2023-09-30T02:40:03;12.60;;;3.85;;
72611;SDS011;60655;52.182;4.474;2023-09-30T02:42:06;10.32;;;3.72;;
72611;SDS011;60655;52.182;4.474;2023-09-30T02:44:06;9.65;;;3.67;;
72611;SDS011;60655;52.182;4.474;2023-09-30T02:46:07;14.77;;;3.75;;
72611;SDS011;60655;52.182;4.474;2023-09-30T02:48:09;10.07;;;3.72;;
72611;SDS011;60655;52.182;4.474;2023-09-30T02:50:10;13.68;;;4.00;;
72611;SDS011;60655;52.182;4.474;2023-09-30T02:52:17;14.60;;;4.25;;
72611;SDS011;60655;52.182;4.474;2023-09-30T02:54:18;14.43;;;4.18;;
72611;SDS011;60655;52.182;4.474;2023-09-30T02:56:19;15.45;;;3.95;;
72611;SDS011;60655;52.182;4.474;2023-09-30T02:58:20;11.55;;;3.30;;
72611;SDS011;60655;52.182;4.474;2023-09-30T03:00:21;15.02;;;3.92;;
72611;SDS011;60655;52.182;4.474;2023-09-30T03:02:26;9.75;;;3.92;;
72611;SDS011;60655;52.182;4.474;2023-09-30T03:04:27;12.20;;;3.95;;
72611;SDS011;60655;52.182;4.474;2023-09-30T03:06:29;13.23;;;3.75;;
72611;SDS011;60655;52.182;4.474;2023-09-30T03:08:29;13.55;;;4.22;;
72611;SDS011;60655;52.182;4.474;2023-09-30T03:10:30;12.75;;;4.00;;
72611;SDS011;60655;52.182;4.474;2023-09-30T03:12:31;14.40;;;4.40;;
72611;SDS011;60655;52.182;4.474;2023-09-30T03:14:32;11.75;;;3.80;;
72611;SDS011;60655;52.182;4.474;2023-09-30T03:16:35;14.80;;;3.75;;
72611;SDS011;60655;52.182;4.474;2023-09-30T03:18:38;10.75;;;4.30;;
72611;SDS011;60655;52.182;4.474;2023-09-30T03:20:39;10.48;;;4.15;;
72611;SDS011;60655;52.182;4.474;2023-09-30T03:22:41;13.05;;;3.88;;
72611;SDS011;60655;52.182;4.474;2023-09-30T03:24:43;13.35;;;4.35;;
72611;SDS011;60655;52.182;4.474;2023-09-30T03:26:44;15.52;;;5.00;;
72611;SDS011;60655;52.182;4.474;2023-09-30T03:28:44;13.02;;;4.57;;
72611;SDS011;60655;52.182;4.474;2023-09-30T03:30:46;17.65;;;4.90;;
72611;SDS011;60655;52.182;4.474;2023-09-30T03:32:47;14.30;;;4.80;;
72611;SDS011;60655;52.182;4.474;2023-09-30T03:34:48;15.30;;;5.32;;
72611;SDS011;60655;52.182;4.474;2023-09-30T03:36:50;20.42;;;5.45;;
72611;SDS011;60655;52.182;4.474;2023-09-30T03:38:51;13.93;;;4.68;;
72611;SDS011;60655;52.182;4.474;2023-09-30T03:40:59;16.73;;;5.20;;
72611;SDS011;60655;52.182;4.474;2023-09-30T03:43:00;17.88;;;5.40;;
72611;SDS011;60655;52.182;4.474;2023-09-30T03:45:01;16.52;;;5.95;;
72611;SDS011;60655;52.182;4.474;2023-09-30T03:47:04;14.75;;;5.57;;
72611;SDS011;60655;52.182;4.474;2023-09-30T03:49:05;16.40;;;5.03;;
72611;SDS011;60655;52.182;4.474;2023-09-30T03:51:12;17.70;;;5.57;;
72611;SDS011;60655;52.182;4.474;2023-09-30T03:53:16;12.75;;;5.32;;
72611;SDS011;60655;52.182;4.474;2023-09-30T03:55:17;15.05;;;5.95;;
72611;SDS011;60655;52.182;4.474;2023-09-30T03:57:18;12.85;;;6.03;;
72611;SDS011;60655;52.182;4.474;2023-09-30T03:59:20;13.30;;;5.85;;
72611;SDS011;60655;52.182;4.474;2023-09-30T04:01:20;13.63;;;5.45;;
72611;SDS011;60655;52.182;4.474;2023-09-30T04:03:21;17.13;;;6.00;;
72611;SDS011;60655;52.182;4.474;2023-09-30T04:05:23;14.52;;;5.78;;
72611;SDS011;60655;52.182;4.474;2023-09-30T04:07:29;15.63;;;5.20;;
72611;SDS011;60655;52.182;4.474;2023-09-30T04:09:31;14.48;;;5.88;;
72611;SDS011;60655;52.182;4.474;2023-09-30T04:11:32;21.02;;;6.40;;
72611;SDS011;60655;52.182;4.474;2023-09-30T04:13:33;17.27;;;5.82;;
72611;SDS011;60655;52.182;4.474;2023-09-30T04:15:35;15.63;;;6.32;;
72611;SDS011;60655;52.182;4.474;2023-09-30T04:17:37;19.55;;;6.38;;
72611;SDS011;60655;52.182;4.474;2023-09-30T04:19:39;15.93;;;6.32;;
72611;SDS011;60655;52.182;4.474;2023-09-30T04:21:40;17.77;;;6.07;;
72611;SDS011;60655;52.182;4.474;2023-09-30T04:23:41;18.38;;;6.22;;
72611;SDS011;60655;52.182;4.474;2023-09-30T04:25:42;13.20;;;5.70;;
72611;SDS011;60655;52.182;4.474;2023-09-30T04:27:43;16.23;;;5.88;;
72611;SDS011;60655;52.182;4.474;2023-09-30T04:29:45;18.67;;;5.47;;
72611;SDS011;60655;52.182;4.474;2023-09-30T04:31:46;18.90;;;6.78;;
72611;SDS011;60655;52.182;4.474;2023-09-30T04:33:48;15.88;;;6.18;;
72611;SDS011;60655;52.182;4.474;2023-09-30T04:35:49;21.05;;;7.28;;
72611;SDS011;60655;52.182;4.474;2023-09-30T04:37:50;16.60;;;6.85;;
72611;SDS011;60655;52.182;4.474;2023-09-30T04:39:51;18.65;;;6.90;;
72611;SDS011;60655;52.182;4.474;2023-09-30T04:41:54;17.42;;;7.18;;
72611;SDS011;60655;52.182;4.474;2023-09-30T04:43:56;15.75;;;5.97;;
72611;SDS011;60655;52.182;4.474;2023-09-30T04:45:57;18.15;;;7.53;;
72611;SDS011;60655;52.182;4.474;2023-09-30T04:47:58;20.08;;;7.90;;
72611;SDS011;60655;52.182;4.474;2023-09-30T04:49:59;19.05;;;8.25;;
72611;SDS011;60655;52.182;4.474;2023-09-30T04:52:04;20.35;;;7.47;;
72611;SDS011;60655;52.182;4.474;2023-09-30T04:54:07;19.23;;;6.93;;
72611;SDS011;60655;52.182;4.474;2023-09-30T04:56:09;19.50;;;6.93;;
72611;SDS011;60655;52.182;4.474;2023-09-30T04:58:10;18.15;;;6.30;;
72611;SDS011;60655;52.182;4.474;2023-09-30T05:00:12;17.92;;;6.82;;
72611;SDS011;60655;52.182;4.474;2023-09-30T05:02:14;18.67;;;8.02;;
72611;SDS011;60655;52.182;4.474;2023-09-30T05:04:15;17.85;;;6.82;;
72611;SDS011;60655;52.182;4.474;2023-09-30T05:06:16;19.85;;;6.68;;
72611;SDS011;60655;52.182;4.474;2023-09-30T05:08:17;22.42;;;7.57;;
72611;SDS011;60655;52.182;4.474;2023-09-30T05:10:18;18.27;;;6.97;;
72611;SDS011;60655;52.182;4.474;2023-09-30T05:12:19;17.55;;;6.72;;
72611;SDS011;60655;52.182;4.474;2023-09-30T05:14:20;18.48;;;6.88;;
72611;SDS011;60655;52.182;4.474;2023-09-30T05:16:21;16.38;;;7.00;;
72611;SDS011;60655;52.182;4.474;2023-09-30T05:18:22;18.27;;;7.10;;
72611;SDS011;60655;52.182;4.474;2023-09-30T05:20:24;16.42;;;6.97;;
72611;SDS011;60655;52.182;4.474;2023-09-30T05:22:25;15.43;;;6.88;;
72611;SDS011;60655;52.182;4.474;2023-09-30T05:24:27;17.48;;;7.78;;
72611;SDS011;60655;52.182;4.474;2023-09-30T05:26:28;16.05;;;7.28;;
72611;SDS011;60655;52.182;4.474;2023-09-30T05:28:29;19.30;;;7.78;;
72611;SDS011;60655;52.182;4.474;2023-09-30T05:30:32;24.00;;;7.53;;
72611;SDS011;60655;52.182;4.474;2023-09-30T05:32:34;18.88;;;7.50;;
72611;SDS011;60655;52.182;4.474;2023-09-30T05:34:38;18.63;;;7.95;;
72611;SDS011;60655;52.182;4.474;2023-09-30T05:36:39;18.63;;;8.25;;
72611;SDS011;60655;52.182;4.474;2023-09-30T05:38:40;16.38;;;7.07;;
72611;SDS011;60655;52.182;4.474;2023-09-30T05:40:42;22.60;;;7.90;;
72611;SDS011;60655;52.182;4.474;2023-09-30T05:42:44;20.08;;;7.85;;
72611;SDS011;60655;52.182;4.474;2023-09-30T05:44:45;24.05;;;8.23;;
72611;SDS011;60655;52.182;4.474;2023-09-30T05:46:46;16.20;;;7.18;;
72611;SDS011;60655;52.182;4.474;2023-09-30T05:48:47;18.92;;;7.25;;
72611;SDS011;60655;52.182;4.474;2023-09-30T05:50:48;20.83;;;7.72;;
72611;SDS011;60655;52.182;4.474;2023-09-30T05:52:50;17.98;;;6.93;;
72611;SDS011;60655;52.182;4.474;2023-09-30T05:54:51;20.48;;;7.40;;
72611;SDS011;60655;52.182;4.474;2023-09-30T05:56:53;18.95;;;7.07;;
72611;SDS011;60655;52.182;4.474;2023-09-30T05:58:54;21.42;;;7.47;;
72611;SDS011;60655;52.182;4.474;2023-09-30T06:00:55;17.40;;;7.43;;
72611;SDS011;60655;52.182;4.474;2023-09-30T06:02:56;22.75;;;7.63;;
72611;SDS011;60655;52.182;4.474;2023-09-30T06:04:58;21.10;;;8.02;;
72611;SDS011;60655;52.182;4.474;2023-09-30T06:06:59;22.60;;;8.02;;
72611;SDS011;60655;52.182;4.474;2023-09-30T06:09:00;22.77;;;8.07;;
72611;SDS011;60655;52.182;4.474;2023-09-30T06:11:01;21.20;;;8.52;;
72611;SDS011;60655;52.182;4.474;2023-09-30T06:13:01;22.73;;;8.93;;
72611;SDS011;60655;52.182;4.474;2023-09-30T06:15:03;30.83;;;10.50;;
72611;SDS011;60655;52.182;4.474;2023-09-30T06:17:04;23.25;;;9.00;;
72611;SDS011;60655;52.182;4.474;2023-09-30T06:19:06;24.23;;;8.93;;
72611;SDS011;60655;52.182;4.474;2023-09-30T06:21:07;24.23;;;10.38;;
72611;SDS011;60655;52.182;4.474;2023-09-30T06:23:10;24.02;;;10.82;;
72611;SDS011;60655;52.182;4.474;2023-09-30T06:25:12;23.77;;;10.30;;
72611;SDS011;60655;52.182;4.474;2023-09-30T06:27:14;21.35;;;9.55;;
72611;SDS011;60655;52.182;4.474;2023-09-30T06:29:15;22.85;;;11.05;;
72611;SDS011;60655;52.182;4.474;2023-09-30T06:31:16;35.83;;;11.63;;
72611;SDS011;60655;52.182;4.474;2023-09-30T06:33:17;25.35;;;11.80;;
72611;SDS011;60655;52.182;4.474;2023-09-30T06:35:18;24.20;;;11.32;;
72611;SDS011;60655;52.182;4.474;2023-09-30T06:37:19;26.75;;;11.13;;
72611;SDS011;60655;52.182;4.474;2023-09-30T06:39:20;26.98;;;11.02;;
72611;SDS011;60655;52.182;4.474;2023-09-30T06:41:21;28.95;;;12.75;;
72611;SDS011;60655;52.182;4.474;2023-09-30T06:43:23;30.77;;;11.52;;
72611;SDS011;60655;52.182;4.474;2023-09-30T06:45:24;31.85;;;11.75;;
72611;SDS011;60655;52.182;4.474;2023-09-30T06:47:25;28.00;;;11.65;;
72611;SDS011;60655;52.182;4.474;2023-09-30T06:49:26;32.35;;;11.88;;
72611;SDS011;60655;52.182;4.474;2023-09-30T06:51:27;24.55;;;10.90;;
72611;SDS011;60655;52.182;4.474;2023-09-30T06:53:28;32.50;;;12.15;;
72611;SDS011;60655;52.182;4.474;2023-09-30T06:55:29;27.50;;;12.63;;
72611;SDS011;60655;52.182;4.474;2023-09-30T06:57:34;31.02;;;13.18;;
72611;SDS011;60655;52.182;4.474;2023-09-30T06:59:36;28.30;;;11.48;;
72611;SDS011;60655;52.182;4.474;2023-09-30T07:01:38;33.38;;;12.30;;
72611;SDS011;60655;52.182;4.474;2023-09-30T07:03:40;31.02;;;13.35;;
72611;SDS011;60655;52.182;4.474;2023-09-30T07:05:41;25.73;;;11.80;;
72611;SDS011;60655;52.182;4.474;2023-09-30T07:07:42;28.23;;;12.98;;
72611;SDS011;60655;52.182;4.474;2023-09-30T07:09:45;28.40;;;12.50;;
72611;SDS011;60655;52.182;4.474;2023-09-30T07:11:46;30.85;;;13.25;;
72611;SDS011;60655;52.182;4.474;2023-09-30T07:13:49;29.50;;;12.50;;
72611;SDS011;60655;52.182;4.474;2023-09-30T07:15:50;32.40;;;12.50;;
72611;SDS011;60655;52.182;4.474;2023-09-30T07:17:51;30.88;;;12.90;;
72611;SDS011;60655;52.182;4.474;2023-09-30T07:19:52;31.17;;;11.98;;
72611;SDS011;60655;52.182;4.474;2023-09-30T07:21:53;21.77;;;11.10;;
72611;SDS011;60655;52.182;4.474;2023-09-30T07:23:54;26.25;;;10.55;;
72611;SDS011;60655;52.182;4.474;2023-09-30T07:25:55;29.55;;;12.07;;
72611;SDS011;60655;52.182;4.474;2023-09-30T07:27:58;30.13;;;10.85;;
72611;SDS011;60655;52.182;4.474;2023-09-30T07:29:59;31.10;;;10.82;;
72611;SDS011;60655;52.182;4.474;2023-09-30T07:32:00;22.58;;;11.65;;
72611;SDS011;60655;52.182;4.474;2023-09-30T07:34:02;22.90;;;11.20;;
72611;SDS011;60655;52.182;4.474;2023-09-30T07:36:03;26.00;;;10.77;;
72611;SDS011;60655;52.182;4.474;2023-09-30T07:38:04;22.92;;;11.45;;
72611;SDS011;60655;52.182;4.474;2023-09-30T07:40:05;24.40;;;11.35;;
72611;SDS011;60655;52.182;4.474;2023-09-30T07:42:08;26.67;;;11.60;;
72611;SDS011;60655;52.182;4.474;2023-09-30T07:44:10;25.92;;;11.20;;
72611;SDS011;60655;52.182;4.474;2023-09-30T07:46:11;21.58;;;10.50;;
72611;SDS011;60655;52.182;4.474;2023-09-30T07:48:12;25.85;;;11.00;;
72611;SDS011;60655;52.182;4.474;2023-09-30T07:50:14;25.98;;;10.77;;
72611;SDS011;60655;52.182;4.474;2023-09-30T07:52:16;24.45;;;10.93;;
72611;SDS011;60655;52.182;4.474;2023-09-30T07:54:16;22.63;;;9.68;;
72611;SDS011;60655;52.182;4.474;2023-09-30T07:56:18;26.33;;;11.20;;
72611;SDS011;60655;52.182;4.474;2023-09-30T07:58:18;25.17;;;11.10;;
72611;SDS011;60655;52.182;4.474;2023-09-30T08:00:19;24.45;;;10.00;;
72611;SDS011;60655;52.182;4.474;2023-09-30T08:02:21;25.60;;;10.52;;
72611;SDS011;60655;52.182;4.474;2023-09-30T08:04:23;29.70;;;12.35;;
72611;SDS011;60655;52.182;4.474;2023-09-30T08:06:24;24.33;;;11.38;;
72611;SDS011;60655;52.182;4.474;2023-09-30T08:08:25;26.50;;;11.80;;
72611;SDS011;60655;52.182;4.474;2023-09-30T08:10:26;27.90;;;12.00;;
72611;SDS011;60655;52.182;4.474;2023-09-30T08:12:27;20.45;;;10.57;;
72611;SDS011;60655;52.182;4.474;2023-09-30T08:14:28;23.35;;;10.63;;
72611;SDS011;60655;52.182;4.474;2023-09-30T08:16:29;22.83;;;9.40;;
72611;SDS011;60655;52.182;4.474;2023-09-30T08:18:30;25.23;;;10.70;;
72611;SDS011;60655;52.182;4.474;2023-09-30T08:20:31;23.02;;;9.70;;
72611;SDS011;60655;52.182;4.474;2023-09-30T08:22:32;21.42;;;10.18;;
72611;SDS011;60655;52.182;4.474;2023-09-30T08:24:33;21.05;;;9.48;;
72611;SDS011;60655;52.182;4.474;2023-09-30T08:26:34;21.73;;;9.80;;
72611;SDS011;60655;52.182;4.474;2023-09-30T08:28:36;21.38;;;9.18;;
72611;SDS011;60655;52.182;4.474;2023-09-30T08:30:37;26.33;;;9.07;;
72611;SDS011;60655;52.182;4.474;2023-09-30T08:32:39;20.67;;;9.43;;
72611;SDS011;60655;52.182;4.474;2023-09-30T08:34:40;21.58;;;8.40;;
72611;SDS011;60655;52.182;4.474;2023-09-30T08:36:41;23.98;;;8.88;;
72611;SDS011;60655;52.182;4.474;2023-09-30T08:38:42;22.67;;;9.15;;
72611;SDS011;60655;52.182;4.474;2023-09-30T08:40:44;18.60;;;8.02;;
72611;SDS011;60655;52.182;4.474;2023-09-30T08:42:48;17.52;;;7.30;;
72611;SDS011;60655;52.182;4.474;2023-09-30T08:44:53;18.80;;;7.00;;
72611;SDS011;60655;52.182;4.474;2023-09-30T08:46:57;22.25;;;7.38;;
72611;SDS011;60655;52.182;4.474;2023-09-30T08:49:02;22.95;;;7.75;;
72611;SDS011;60655;52.182;4.474;2023-09-30T08:51:04;16.48;;;7.07;;
72611;SDS011;60655;52.182;4.474;2023-09-30T08:53:05;19.13;;;6.82;;
72611;SDS011;60655;52.182;4.474;2023-09-30T08:55:07;23.00;;;6.85;;
72611;SDS011;60655;52.182;4.474;2023-09-30T08:57:09;18.30;;;6.78;;
72611;SDS011;60655;52.182;4.474;2023-09-30T08:59:11;17.42;;;7.63;;
72611;SDS011;60655;52.182;4.474;2023-09-30T09:01:12;18.73;;;6.57;;
72611;SDS011;60655;52.182;4.474;2023-09-30T09:03:13;20.30;;;6.88;;
72611;SDS011;60655;52.182;4.474;2023-09-30T09:05:14;16.35;;;6.25;;
72611;SDS011;60655;52.182;4.474;2023-09-30T09:07:16;23.38;;;6.40;;
72611;SDS011;60655;52.182;4.474;2023-09-30T09:09:17;16.45;;;6.35;;
72611;SDS011;60655;52.182;4.474;2023-09-30T09:11:19;16.85;;;6.53;;
72611;SDS011;60655;52.182;4.474;2023-09-30T09:13:20;16.35;;;6.45;;
72611;SDS011;60655;52.182;4.474;2023-09-30T09:15:28;17.45;;;6.40;;
72611;SDS011;60655;52.182;4.474;2023-09-30T09:17:42;20.73;;;6.40;;
72611;SDS011;60655;52.182;4.474;2023-09-30T09:19:45;17.10;;;6.18;;
72611;SDS011;60655;52.182;4.474;2023-09-30T09:22:01;18.30;;;5.78;;
72611;SDS011;60655;52.182;4.474;2023-09-30T09:24:05;20.92;;;6.22;;
72611;SDS011;60655;52.182;4.474;2023-09-30T09:26:06;18.35;;;6.68;;
72611;SDS011;60655;52.182;4.474;2023-09-30T09:28:08;15.68;;;5.53;;
72611;SDS011;60655;52.182;4.474;2023-09-30T09:30:16;15.82;;;6.00;;
72611;SDS011;60655;52.182;4.474;2023-09-30T09:32:27;18.73;;;6.18;;
72611;SDS011;60655;52.182;4.474;2023-09-30T09:34:28;15.43;;;5.75;;
72611;SDS011;60655;52.182;4.474;2023-09-30T09:36:42;13.57;;;5.00;;
72611;SDS011;60655;52.182;4.474;2023-09-30T09:38:45;13.75;;;4.72;;
72611;SDS011;60655;52.182;4.474;2023-09-30T09:40:48;15.32;;;4.32;;
72611;SDS011;60655;52.182;4.474;2023-09-30T09:42:49;15.38;;;4.53;;
72611;SDS011;60655;52.182;4.474;2023-09-30T09:44:55;13.68;;;4.10;;
72611;SDS011;60655;52.182;4.474;2023-09-30T09:46:57;15.10;;;3.85;;
72611;SDS011;60655;52.182;4.474;2023-09-30T09:48:58;14.60;;;4.18;;
72611;SDS011;60655;52.182;4.474;2023-09-30T09:50:59;17.90;;;4.32;;
72611;SDS011;60655;52.182;4.474;2023-09-30T09:53:02;10.68;;;3.08;;
72611;SDS011;60655;52.182;4.474;2023-09-30T09:55:05;9.93;;;3.22;;
72611;SDS011;60655;52.182;4.474;2023-09-30T09:57:08;12.18;;;2.80;;
72611;SDS011;60655;52.182;4.474;2023-09-30T09:59:13;11.10;;;2.28;;
72611;SDS011;60655;52.182;4.474;2023-09-30T10:01:15;9.13;;;2.08;;
72611;SDS011;60655;52.182;4.474;2023-09-30T10:03:16;7.95;;;2.00;;
72611;SDS011;60655;52.182;4.474;2023-09-30T10:05:17;7.43;;;1.33;;
72611;SDS011;60655;52.182;4.474;2023-09-30T10:07:21;10.00;;;1.48;;
72611;SDS011;60655;52.182;4.474;2023-09-30T10:09:26;6.93;;;1.20;;
72611;SDS011;60655;52.182;4.474;2023-09-30T10:11:28;9.90;;;1.50;;
72611;SDS011;60655;52.182;4.474;2023-09-30T10:15:56;8.02;;;1.30;;
72611;SDS011;60655;52.182;4.474;2023-09-30T10:20:03;8.18;;;1.40;;
72611;SDS011;60655;52.182;4.474;2023-09-30T10:26:23;7.93;;;1.38;;
72611;SDS011;60655;52.182;4.474;2023-09-30T10:30:35;10.45;;;1.75;;
72611;SDS011;60655;52.182;4.474;2023-09-30T10:34:53;6.63;;;1.40;;
72611;SDS011;60655;52.182;4.474;2023-09-30T10:36:54;6.05;;;1.42;;
72611;SDS011;60655;52.182;4.474;2023-09-30T10:38:55;9.40;;;2.20;;
72611;SDS011;60655;52.182;4.474;2023-09-30T10:40:57;9.95;;;1.77;;
72611;SDS011;60655;52.182;4.474;2023-09-30T10:42:58;9.35;;;1.88;;
72611;SDS011;60655;52.182;4.474;2023-09-30T10:44:59;8.77;;;1.60;;
72611;SDS011;60655;52.182;4.474;2023-09-30T10:47:00;9.80;;;1.33;;
72611;SDS011;60655;52.182;4.474;2023-09-30T10:51:25;9.10;;;1.65;;
72611;SDS011;60655;52.182;4.474;2023-09-30T10:53:26;11.85;;;1.83;;
72611;SDS011;60655;52.182;4.474;2023-09-30T10:55:28;11.77;;;1.63;;
72611;SDS011;60655;52.182;4.474;2023-09-30T10:57:31;11.85;;;1.58;;
72611;SDS011;60655;52.182;4.474;2023-09-30T10:59:32;11.40;;;1.73;;
72611;SDS011;60655;52.182;4.474;2023-09-30T11:01:35;8.93;;;1.63;;
72611;SDS011;60655;52.182;4.474;2023-09-30T11:03:36;7.10;;;1.40;;
72611;SDS011;60655;52.182;4.474;2023-09-30T11:05:37;7.20;;;1.40;;
72611;SDS011;60655;52.182;4.474;2023-09-30T11:07:39;10.77;;;1.60;;
72611;SDS011;60655;52.182;4.474;2023-09-30T11:09:40;9.60;;;1.40;;
72611;SDS011;60655;52.182;4.474;2023-09-30T11:11:43;8.98;;;1.75;;
72611;SDS011;60655;52.182;4.474;2023-09-30T11:13:49;12.75;;;1.40;;
72611;SDS011;60655;52.182;4.474;2023-09-30T11:15:59;9.15;;;1.50;;
72611;SDS011;60655;52.182;4.474;2023-09-30T11:18:15;9.38;;;1.65;;
72611;SDS011;60655;52.182;4.474;2023-09-30T11:20:17;10.45;;;2.13;;
72611;SDS011;60655;52.182;4.474;2023-09-30T11:22:19;9.25;;;1.88;;
72611;SDS011;60655;52.182;4.474;2023-09-30T11:24:21;11.00;;;2.17;;
72611;SDS011;60655;52.182;4.474;2023-09-30T11:26:32;7.50;;;1.85;;
72611;SDS011;60655;52.182;4.474;2023-09-30T11:28:36;10.35;;;1.85;;
72611;SDS011;60655;52.182;4.474;2023-09-30T11:32:58;9.63;;;1.55;;
72611;SDS011;60655;52.182;4.474;2023-09-30T11:35:00;11.32;;;2.05;;
72611;SDS011;60655;52.182;4.474;2023-09-30T11:37:02;8.95;;;1.70;;
72611;SDS011;60655;52.182;4.474;2023-09-30T11:39:04;10.27;;;1.70;;
72611;SDS011;60655;52.182;4.474;2023-09-30T11:41:05;11.88;;;1.70;;
72611;SDS011;60655;52.182;4.474;2023-09-30T11:43:07;12.65;;;2.05;;
72611;SDS011;60655;52.182;4.474;2023-09-30T11:45:18;11.57;;;2.17;;
72611;SDS011;60655;52.182;4.474;2023-09-30T11:47:30;8.55;;;1.75;;
72611;SDS011;60655;52.182;4.474;2023-09-30T11:49:34;11.65;;;1.88;;
72611;SDS011;60655;52.182;4.474;2023-09-30T11:51:43;9.93;;;1.88;;
72611;SDS011;60655;52.182;4.474;2023-09-30T11:53:48;9.20;;;1.98;;
72611;SDS011;60655;52.182;4.474;2023-09-30T11:55:49;7.63;;;1.65;;
72611;SDS011;60655;52.182;4.474;2023-09-30T11:57:50;8.25;;;1.50;;
72611;SDS011;60655;52.182;4.474;2023-09-30T11:59:55;9.48;;;1.75;;
72611;SDS011;60655;52.182;4.474;2023-09-30T12:01:57;8.68;;;2.05;;
72611;SDS011;60655;52.182;4.474;2023-09-30T12:03:58;7.93;;;1.88;;
72611;SDS011;60655;52.182;4.474;2023-09-30T12:06:00;8.68;;;1.58;;
72611;SDS011;60655;52.182;4.474;2023-09-30T12:08:01;9.68;;;1.90;;
72611;SDS011;60655;52.182;4.474;2023-09-30T12:10:02;8.93;;;2.08;;
72611;SDS011;60655;52.182;4.474;2023-09-30T12:12:03;9.00;;;1.90;;
72611;SDS011;60655;52.182;4.474;2023-09-30T12:14:05;9.23;;;1.60;;
72611;SDS011;60655;52.182;4.474;2023-09-30T12:16:06;7.03;;;1.85;;
72611;SDS011;60655;52.182;4.474;2023-09-30T12:18:09;11.95;;;1.85;;
72611;SDS011;60655;52.182;4.474;2023-09-30T12:20:10;11.05;;;1.90;;
72611;SDS011;60655;52.182;4.474;2023-09-30T12:22:15;9.43;;;1.95;;
72611;SDS011;60655;52.182;4.474;2023-09-30T12:24:17;11.23;;;2.13;;
72611;SDS011;60655;52.182;4.474;2023-09-30T12:26:22;10.82;;;2.00;;